Time;durP1;ratioP1;P1;durP2;ratioP2;P2;SDS_P1;SDS_P2;PMS_P1;PMS_P2;Temp;Humidity;BMP_temperature;BMP_pressure;BME280_temperature;BME280_humidity;BME280_pressure;Samples;Min_cycle;Max_cycle;Signal;HPM_P1;HPM_P2
2021/07/08 00:03:15;;;;;;;4.45;2.53;;;;;;;22.30;53.17;101846.47;6241533;28;20306;-49
2021/07/08 00:06:36;;;;;;;2.40;2.10;;;;;;;22.31;53.58;101849.03;6260477;28;20706;-49
2021/07/08 00:09:58;;;;;;;3.95;2.85;;;;;;;22.28;53.81;101837.69;6257069;28;20228;-50
2021/07/08 00:13:22;;;;;;;3.47;2.20;;;;;;;22.44;53.69;101846.72;6262778;28;20236;-48
2021/07/08 00:16:43;;;;;;;4.82;2.25;;;;;;;22.07;54.50;101845.56;6257586;28;20227;-49
2021/07/08 00:20:08;;;;;;;5.90;3.15;;;;;;;22.29;53.86;101845.56;6259506;28;20227;-52
2021/07/08 00:23:29;;;;;;;3.88;3.00;;;;;;;22.42;53.32;101849.44;6263514;28;20216;-51
2021/07/08 00:26:51;;;;;;;5.07;2.30;;;;;;;22.37;54.06;101856.75;6267558;28;20219;-51
2021/07/08 00:30:13;;;;;;;4.28;2.45;;;;;;;22.33;54.09;101851.63;6266029;28;20406;-49
2021/07/08 00:33:34;;;;;;;3.53;2.53;;;;;;;22.37;54.05;101847.91;6263600;28;20239;-53
2021/07/08 00:36:55;;;;;;;3.42;2.78;;;;;;;22.49;53.53;101850.06;6259375;28;20232;-54
2021/07/08 00:40:17;;;;;;;3.42;3.13;;;;;;;22.27;54.34;101852.72;6257767;28;20322;-50
2021/07/08 00:43:39;;;;;;;6.45;2.35;;;;;;;22.14;54.75;101848.81;6258826;28;20224;-48
2021/07/08 00:47:00;;;;;;;2.63;2.33;;;;;;;22.25;54.67;101851.09;6263684;28;20219;-54
2021/07/08 00:50:24;;;;;;;2.65;1.80;;;;;;;22.08;55.29;101844.66;6258938;28;20231;-47
2021/07/08 00:53:45;;;;;;;4.88;2.25;;;;;;;22.02;55.98;101839.59;6264081;28;20536;-52
2021/07/08 00:57:27;;;;;;;4.53;2.88;;;;;;;22.22;55.16;101833.47;6265344;28;20235;-51
2021/07/08 01:00:49;;;;;;;5.68;2.80;;;;;;;22.12;56.09;101835.66;6263595;28;20231;-51
2021/07/08 01:04:11;;;;;;;3.03;2.70;;;;;;;22.13;55.96;101850.63;6230055;28;20928;-50
2021/07/08 01:07:32;;;;;;;6.25;2.92;;;;;;;22.19;55.63;101844.22;6247459;28;20604;-53
2021/07/08 01:10:53;;;;;;;3.85;2.75;;;;;;;22.21;55.68;101843.19;6251609;28;20613;-47
2021/07/08 01:14:14;;;;;;;3.33;2.42;;;;;;;22.26;55.57;101844.88;6258476;28;20319;-48
2021/07/08 01:17:37;;;;;;;3.65;2.95;;;;;;;22.33;54.84;101847.19;6248538;28;20235;-52
2021/07/08 01:21:19;;;;;;;3.22;2.40;;;;;;;22.16;55.51;101842.56;6245218;28;20247;-49
2021/07/08 01:24:40;;;;;;;2.75;2.28;;;;;;;22.00;56.15;101857.34;6249235;28;20224;-52
2021/07/08 01:28:03;;;;;;;2.97;2.70;;;;;;;21.99;56.51;101851.19;6272319;28;20232;-51
2021/07/08 01:31:25;;;;;;;3.78;3.17;;;;;;;22.26;55.61;101850.16;6249249;28;20227;-46
2021/07/08 01:34:46;;;;;;;3.70;2.45;;;;;;;22.08;56.33;101849.09;6259239;28;20246;-52
2021/07/08 01:38:09;;;;;;;6.45;2.60;;;;;;;22.01;56.53;101859.09;6262069;28;20255;-53
2021/07/08 01:41:30;;;;;;;3.78;2.40;;;;;;;21.70;57.54;101856.81;6252683;28;20524;-55
2021/07/08 01:44:51;;;;;;;6.35;2.92;;;;;;;21.82;57.33;101854.50;6261817;28;20227;-52
2021/07/08 01:48:12;;;;;;;3.88;2.85;;;;;;;21.87;57.55;101846.41;6252115;28;20247;-49
2021/07/08 01:51:35;;;;;;;2.85;2.38;;;;;;;21.89;57.33;101846.31;6257600;28;20593;-51
2021/07/08 01:54:57;;;;;;;6.60;2.65;;;;;;;21.95;57.36;101839.00;6247043;28;20331;-52
2021/07/08 01:58:18;;;;;;;4.25;2.28;;;;;;;21.77;57.95;101837.06;6263183;28;20232;-51
2021/07/08 02:01:38;;;;;;;4.63;3.25;;;;;;;21.67;58.25;101830.41;6251536;28;20239;-50
2021/07/08 02:04:59;;;;;;;3.25;2.58;;;;;;;21.61;58.50;101828.88;6254478;28;20235;-50
2021/07/08 02:08:20;;;;;;;4.13;2.75;;;;;;;21.64;58.59;101834.06;6256338;28;20314;-49
2021/07/08 02:11:42;;;;;;;2.67;2.40;;;;;;;21.62;58.30;101831.47;6258039;28;20318;-49
2021/07/08 02:15:05;;;;;;;5.22;3.45;;;;;;;21.43;58.91;101833.97;6264463;28;20235;-48
2021/07/08 02:18:26;;;;;;;2.53;2.33;;;;;;;21.48;58.85;101832.91;6261926;28;20216;-49
2021/07/08 02:21:47;;;;;;;3.60;2.58;;;;;;;21.38;59.37;101835.91;6249656;28;20625;-52
2021/07/08 02:25:09;;;;;;;3.50;2.45;;;;;;;21.56;58.90;101842.31;6247752;28;20231;-51
2021/07/08 02:28:31;;;;;;;4.57;2.83;;;;;;;21.68;58.49;101845.41;6248442;28;20247;-49
2021/07/08 02:31:52;;;;;;;5.40;3.35;;;;;;;21.69;58.87;101837.38;6250635;28;20232;-54
2021/07/08 02:35:13;;;;;;;5.15;2.90;;;;;;;21.42;59.66;101829.56;6254742;28;20239;-53
2021/07/08 02:38:35;;;;;;;4.38;2.78;;;;;;;21.50;59.73;101825.75;6259844;28;20232;-49
2021/07/08 02:41:56;;;;;;;4.25;2.60;;;;;;;21.48;59.25;101830.25;6263891;28;20228;-53
2021/07/08 02:45:19;;;;;;;3.83;2.80;;;;;;;21.35;59.36;101828.06;6259374;28;20220;-52
2021/07/08 02:48:40;;;;;;;3.80;2.30;;;;;;;21.40;59.63;101820.81;6256152;28;20224;-54
2021/07/08 02:52:01;;;;;;;3.50;3.15;;;;;;;21.78;58.34;101826.41;6246997;28;20231;-52
2021/07/08 02:55:23;;;;;;;4.80;2.88;;;;;;;21.82;58.17;101830.66;6257978;28;20236;-53
2021/07/08 02:58:44;;;;;;;9.30;3.10;;;;;;;21.45;59.30;101833.03;6261592;28;20235;-48
2021/07/08 03:02:06;;;;;;;3.05;2.75;;;;;;;21.60;58.88;101843.06;6270138;28;20522;-50
2021/07/08 03:05:28;;;;;;;7.70;6.40;;;;;;;21.83;58.32;101840.34;6251729;28;20314;-52
2021/07/08 03:08:48;;;;;;;14.30;13.07;;;;;;;21.59;58.91;101830.72;6261336;28;20232;-50
2021/07/08 03:12:10;;;;;;;5.60;5.00;;;;;;;21.73;58.51;101823.09;6261450;28;20231;-50
2021/07/08 03:15:31;;;;;;;4.55;4.15;;;;;;;21.83;58.50;101824.44;6253907;28;20224;-51
2021/07/08 03:18:53;;;;;;;4.97;3.92;;;;;;;21.71;58.59;101819.63;6266233;28;20232;-50
2021/07/08 03:22:15;;;;;;;5.50;5.00;;;;;;;21.69;58.79;101818.81;6259888;28;20552;-50
2021/07/08 03:25:36;;;;;;;4.82;4.30;;;;;;;21.84;58.34;101820.00;6249160;28;20232;-50
2021/07/08 03:28:57;;;;;;;7.50;4.55;;;;;;;21.62;59.11;101827.94;6257930;28;20246;-52
2021/07/08 03:32:17;;;;;;;6.38;3.92;;;;;;;21.58;59.12;101829.84;6257233;28;20223;-51
2021/07/08 03:35:40;;;;;;;6.85;6.20;;;;;;;21.58;59.18;101836.97;6255436;28;20318;-51
2021/07/08 03:39:01;;;;;;;4.15;3.67;;;;;;;21.56;59.16;101830.84;6256147;28;20227;-52
2021/07/08 03:42:22;;;;;;;10.45;9.00;;;;;;;21.73;59.14;101844.31;6254835;28;20232;-51
2021/07/08 03:45:43;;;;;;;7.95;6.93;;;;;;;21.91;57.94;101847.16;6256117;28;20609;-51
2021/07/08 03:49:04;;;;;;;10.27;9.15;;;;;;;21.63;59.47;101843.81;6269636;28;20223;-51
2021/07/08 03:52:27;;;;;;;8.73;7.82;;;;;;;21.75;59.24;101850.41;6260258;28;21194;-54
2021/07/08 03:55:48;;;;;;;5.00;4.50;;;;;;;21.76;59.05;101844.16;6262967;28;20255;-49
2021/07/08 03:59:09;;;;;;;7.97;6.05;;;;;;;21.82;59.15;101854.50;6257837;28;20532;-50
2021/07/08 04:02:31;;;;;;;8.02;7.32;;;;;;;21.85;59.20;101852.66;6256377;28;20224;-49
2021/07/08 04:05:52;;;;;;;5.53;5.00;;;;;;;21.81;59.22;101852.81;6261241;28;20228;-53
2021/07/08 04:09:14;;;;;;;6.22;3.95;;;;;;;21.43;60.51;101852.50;6253583;28;20255;-50
2021/07/08 04:12:35;;;;;;;5.78;3.85;;;;;;;21.80;59.38;101858.16;6258419;28;20543;-51
2021/07/08 04:15:56;;;;;;;7.25;5.10;;;;;;;21.84;59.29;101865.06;6265557;28;20228;-53
2021/07/08 04:19:17;;;;;;;8.10;7.40;;;;;;;21.87;59.12;101879.97;6264184;28;20251;-49
2021/07/08 04:22:39;;;;;;;4.70;4.30;;;;;;;21.94;58.74;101889.44;6259244;28;20223;-53
2021/07/08 04:26:01;;;;;;;10.48;9.57;;;;;;;21.73;59.68;101891.13;6253044;28;20417;-54
2021/07/08 04:29:22;;;;;;;9.90;8.90;;;;;;;21.60;60.18;101896.91;6244940;28;20232;-52
2021/07/08 04:32:43;;;;;;;11.05;8.88;;;;;;;21.82;59.74;101893.44;6259954;28;20251;-47
2021/07/08 04:36:04;;;;;;;6.90;5.85;;;;;;;21.92;59.45;101892.13;6253196;28;20224;-52
2021/07/08 04:39:25;;;;;;;14.15;12.80;;;;;;;22.14;58.82;101891.28;6250731;28;20227;-50
2021/07/08 04:42:48;;;;;;;8.55;7.75;;;;;;;21.99;59.07;101896.28;6264687;28;20649;-54
2021/07/08 04:46:10;;;;;;;5.80;5.30;;;;;;;21.69;60.11;101884.22;6265036;28;20251;-48
2021/07/08 04:49:31;;;;;;;5.53;4.93;;;;;;;21.66;60.02;101895.81;6245360;28;20223;-50
2021/07/08 04:52:52;;;;;;;4.40;4.00;;;;;;;21.98;59.12;101886.63;6261824;28;20232;-52
2021/07/08 04:56:13;;;;;;;9.55;4.93;;;;;;;22.12;58.84;101896.66;6257703;28;20555;-52
2021/07/08 04:59:35;;;;;;;8.38;4.53;;;;;;;21.61;59.97;101929.59;6261334;28;20298;-50
2021/07/08 05:02:56;;;;;;;6.28;4.00;;;;;;;20.37;64.61;101932.94;6259420;28;20239;-52
2021/07/08 05:06:17;;;;;;;5.53;4.35;;;;;;;21.07;62.29;101922.69;6258632;28;20219;-52
2021/07/08 05:09:39;;;;;;;6.63;4.10;;;;;;;21.51;60.88;101907.00;6258539;28;20600;-50
2021/07/08 05:13:00;;;;;;;5.05;3.70;;;;;;;21.40;61.07;101910.00;6246739;28;20231;-51
2021/07/08 05:16:22;;;;;;;4.90;4.43;;;;;;;21.22;61.54;101916.84;6259488;28;20329;-49
2021/07/08 05:19:43;;;;;;;6.90;5.22;;;;;;;20.91;62.57;101917.94;6259034;28;20508;-51
2021/07/08 05:23:12;;;;;;;6.75;4.65;;;;;;;21.63;60.41;101911.84;6262934;28;20470;-50
2021/07/08 05:26:33;;;;;;;9.90;4.50;;;;;;;21.95;59.15;101904.44;6250052;28;20505;-49
2021/07/08 05:29:56;;;;;;;5.43;4.88;;;;;;;21.92;59.38;101907.19;6260191;28;20239;-46
2021/07/08 05:33:18;;;;;;;5.45;4.85;;;;;;;21.46;60.19;101916.91;6252366;28;20228;-47
2021/07/08 05:36:39;;;;;;;5.15;4.05;;;;;;;21.32;61.60;101918.25;6255756;28;21760;-49
2021/07/08 05:40:00;;;;;;;6.75;4.43;;;;;;;21.27;61.71;101903.44;6239913;28;20247;-58
2021/07/08 05:43:21;;;;;;;6.68;4.63;;;;;;;22.34;58.43;101893.16;6257234;28;20234;-59
2021/07/08 05:46:42;;;;;;;7.03;4.85;;;;;;;22.58;57.93;101902.72;6248288;28;20220;-60
2021/07/08 05:50:06;;;;;;;10.32;5.22;;;;;;;22.97;56.37;101909.94;6251295;28;20259;-60
2021/07/08 05:53:27;;;;;;;6.78;5.57;;;;;;;22.58;57.11;101908.03;6258816;28;20339;-59
2021/07/08 05:56:47;;;;;;;10.40;5.65;;;;;;;22.01;59.02;101917.44;6259837;28;20236;-60
2021/07/08 06:00:09;;;;;;;6.32;5.43;;;;;;;21.91;59.61;101916.09;6253031;28;20330;-60
2021/07/08 06:03:30;;;;;;;8.27;5.75;;;;;;;22.18;58.76;101925.59;6254030;28;20235;-60
2021/07/08 06:06:53;;;;;;;7.57;5.60;;;;;;;22.09;59.46;101917.13;6254709;28;20227;-59
2021/07/08 06:10:14;;;;;;;5.22;4.78;;;;;;;22.92;57.02;101906.59;6250461;28;20505;-60
2021/07/08 06:13:34;;;;;;;8.27;4.45;;;;;;;23.27;56.07;101906.84;6259814;28;20620;-60
2021/07/08 06:16:55;;;;;;;6.20;5.63;;;;;;;23.30;55.87;101912.03;6251815;28;20837;-60
2021/07/08 06:20:17;;;;;;;5.22;4.80;;;;;;;23.41;55.55;101918.66;6253135;28;20256;-61
2021/07/08 06:23:40;;;;;;;8.18;6.43;;;;;;;24.04;53.68;101919.25;6258729;28;20235;-61
2021/07/08 06:27:01;;;;;;;11.98;10.60;;;;;;;24.25;52.96;101917.31;6246141;28;20228;-60
2021/07/08 06:30:22;;;;;;;8.73;5.40;;;;;;;24.36;52.50;101924.78;6247883;28;20228;-57
2021/07/08 06:33:44;;;;;;;8.00;6.38;;;;;;;23.50;54.05;101935.06;6254912;28;20259;-60
2021/07/08 06:37:05;;;;;;;6.90;5.05;;;;;;;23.10;55.51;101941.28;6257127;28;20537;-59
2021/07/08 06:40:27;;;;;;;9.02;5.30;;;;;;;23.66;54.45;101945.84;6261630;28;20232;-60
2021/07/08 06:43:48;;;;;;;8.30;5.85;;;;;;;23.80;54.04;101944.38;6254746;28;20391;-60
2021/07/08 06:47:13;;;;;;;5.70;4.82;;;;;;;22.67;57.16;101953.72;6260613;28;20334;-61
2021/07/08 06:50:36;;;;;;;5.53;4.60;;;;;;;22.31;58.13;101960.47;6242451;28;20228;-59
2021/07/08 06:53:57;;;;;;;5.93;4.90;;;;;;;22.09;59.07;101970.19;6253580;28;20589;-60
2021/07/08 06:57:22;;;;;;;6.95;6.22;;;;;;;23.27;55.88;101970.63;6257862;28;20232;-59
2021/07/08 07:00:43;;;;;;;8.63;7.80;;;;;;;23.89;54.13;101963.41;6252693;28;20236;-60
2021/07/08 07:04:05;;;;;;;9.07;5.75;;;;;;;24.46;52.54;101959.81;6245078;28;20465;-58
2021/07/08 07:07:26;;;;;;;4.95;4.53;;;;;;;24.77;51.32;101965.34;6250434;28;20244;-57
2021/07/08 07:10:47;;;;;;;5.10;4.70;;;;;;;23.66;53.43;101958.28;6253815;28;20239;-60
2021/07/08 07:14:09;;;;;;;4.45;3.80;;;;;;;24.21;52.24;101953.00;6259628;28;20236;-57
2021/07/08 07:17:33;;;;;;;10.50;5.35;;;;;;;24.84;50.52;101963.25;6261479;28;20227;-59
2021/07/08 07:20:54;;;;;;;6.97;4.60;;;;;;;24.07;52.64;101961.66;6239515;28;20239;-59
2021/07/08 07:24:15;;;;;;;10.13;6.28;;;;;;;25.03;50.34;101963.16;6261894;28;20734;-60
2021/07/08 07:27:36;;;;;;;6.60;4.85;;;;;;;24.37;51.20;101951.34;6253526;28;20307;-60
2021/07/08 07:30:58;;;;;;;6.80;4.22;;;;;;;24.97;50.62;101963.47;6254329;28;20235;-60
2021/07/08 07:34:20;;;;;;;8.73;5.65;;;;;;;24.50;50.36;101970.22;6260576;28;20227;-59
2021/07/08 07:37:42;;;;;;;7.63;5.90;;;;;;;24.40;51.18;101974.28;6249903;28;20231;-60
2021/07/08 07:41:03;;;;;;;4.45;4.05;;;;;;;23.98;52.33;101975.41;6261578;28;20232;-59
2021/07/08 07:44:24;;;;;;;5.32;4.18;;;;;;;24.46;50.98;101968.66;6255202;28;20224;-59
2021/07/08 07:47:51;;;;;;;5.00;4.38;;;;;;;24.95;49.71;101960.00;6253392;28;20314;-60
2021/07/08 07:51:13;;;;;;;5.97;4.60;;;;;;;25.33;49.32;101959.84;6258871;28;20227;-60
2021/07/08 07:54:34;;;;;;;4.95;4.55;;;;;;;25.33;49.15;101967.84;6257109;28;20529;-60
2021/07/08 07:57:56;;;;;;;6.82;5.50;;;;;;;25.06;49.96;101956.78;6258926;28;20601;-58
2021/07/08 08:01:17;;;;;;;4.88;3.95;;;;;;;25.13;50.06;101968.88;6254606;28;20977;-60
2021/07/08 08:04:44;;;;;;;4.93;4.30;;;;;;;25.65;49.19;101965.22;6254831;28;20636;-60
2021/07/08 08:11:44;;;;;;;7.15;4.35;;;;;;;24.80;51.48;101972.31;6257968;28;20252;-61
2021/07/08 08:15:07;;;;;;;7.95;3.85;;;;;;;25.74;49.60;101975.41;6249566;28;20227;-60
2021/07/08 08:18:28;;;;;;;5.15;4.72;;;;;;;25.32;49.96;101976.78;6248783;28;20586;-61
2021/07/08 08:21:50;;;;;;;5.93;4.55;;;;;;;25.24;50.39;101974.53;6254045;28;20270;-58
2021/07/08 08:25:13;;;;;;;6.55;4.38;;;;;;;25.53;49.82;101977.44;6252040;28;20236;-51
2021/07/08 08:28:34;;;;;;;4.97;3.85;;;;;;;25.94;47.93;101985.03;6259435;28;20228;-49
2021/07/08 08:31:55;;;;;;;6.13;3.75;;;;;;;25.93;47.09;101980.63;6260161;28;20664;-50
2021/07/08 08:35:16;;;;;;;4.90;3.03;;;;;;;26.51;45.41;101985.31;6260835;28;20226;-52
2021/07/08 08:38:38;;;;;;;5.07;3.20;;;;;;;26.62;44.47;101982.06;6249803;28;20326;-50
2021/07/08 08:42:00;;;;;;;4.22;3.80;;;;;;;27.35;44.07;101977.75;6256003;28;20239;-52
2021/07/08 08:45:21;;;;;;;6.40;3.15;;;;;;;27.24;43.36;101976.59;6252418;28;20267;-61
2021/07/08 08:48:42;;;;;;;3.95;2.72;;;;;;;26.91;41.07;101975.00;6263943;28;20470;-55
2021/07/08 08:52:03;;;;;;;4.32;3.03;;;;;;;27.63;40.82;101985.78;6255489;28;20236;-57
2021/07/08 08:55:26;;;;;;;5.07;2.60;;;;;;;27.99;39.61;101973.69;6256122;28;20235;-68
2021/07/08 08:58:48;;;;;;;4.18;2.22;;;;;;;27.74;37.37;101974.38;6261254;28;20236;-66
2021/07/08 09:02:13;;;;;;;3.92;2.28;;;;;;;28.14;37.57;101973.69;6264495;28;20278;-65
2021/07/08 09:05:36;;;;;;;5.70;2.60;;;;;;;26.72;38.93;101977.03;6251363;28;20454;-64
2021/07/08 09:09:09;;;;;;;4.97;2.50;;;;;;;26.97;38.52;101973.75;6253615;28;20249;-48
2021/07/08 09:12:31;;;;;;;4.07;2.13;;;;;;;26.96;39.33;101971.19;6251363;28;20351;-50
2021/07/08 09:15:52;;;;;;;4.47;2.58;;;;;;;27.21;40.48;101970.53;6256270;28;20249;-47
2021/07/08 09:19:17;;;;;;;5.57;3.40;;;;;;;27.30;39.91;101975.38;6252045;28;20508;-52
2021/07/08 09:22:38;;;;;;;4.65;2.28;;;;;;;26.98;40.71;101980.81;6253857;28;20219;-52
2021/07/08 09:26:11;;;;;;;4.25;2.47;;;;;;;27.50;39.91;101987.50;6258190;28;20256;-48
2021/07/08 09:29:35;;;;;;;3.03;2.50;;;;;;;27.55;39.27;101979.19;6256557;28;20600;-51
2021/07/08 09:32:56;;;;;;;4.60;2.40;;;;;;;27.29;38.59;101978.97;6256475;28;20232;-48
2021/07/08 09:36:18;;;;;;;4.57;2.60;;;;;;;27.54;38.69;101978.31;6253300;28;20219;-49
2021/07/08 09:39:42;;;;;;;12.40;11.20;;;;;;;27.94;38.68;101978.50;6255219;28;20584;-50
2021/07/08 09:43:04;;;;;;;4.70;3.03;;;;;;;27.53;38.74;101987.31;6256650;28;20240;-48
2021/07/08 09:46:36;;;;;;;3.80;2.70;;;;;;;27.63;38.84;101991.13;6258696;28;20232;-49
2021/07/08 09:49:57;;;;;;;3.95;2.38;;;;;;;27.30;39.37;102005.63;6263081;28;20650;-51
2021/07/08 09:53:20;;;;;;;6.15;2.83;;;;;;;26.95;40.60;102006.84;6259806;28;20231;-50
2021/07/08 09:56:46;;;;;;;3.45;2.30;;;;;;;27.08;41.05;101999.84;6258107;28;20318;-53
2021/07/08 10:00:32;;;;;;;4.22;2.80;;;;;;;27.35;40.92;101993.78;6260452;28;20303;-51
2021/07/08 10:03:56;;;;;;;3.58;2.40;;;;;;;27.54;40.82;101993.53;6262233;28;20239;-50
2021/07/08 10:07:17;;;;;;;5.20;2.30;;;;;;;27.10;40.75;101997.94;6263417;28;20923;-48
2021/07/08 10:10:39;;;;;;;5.90;4.05;;;;;;;27.15;41.00;102001.19;6257134;28;20228;-49
2021/07/08 10:14:03;;;;;;;6.28;2.92;;;;;;;27.10;41.46;101989.91;6265540;28;20547;-50
2021/07/08 10:17:25;;;;;;;4.85;3.63;;;;;;;27.05;41.88;101986.66;6260015;28;20247;-48
2021/07/08 10:20:49;;;;;;;4.60;3.35;;;;;;;27.10;42.11;101990.78;6259356;28;20359;-53
2021/07/08 10:24:12;;;;;;;3.03;2.72;;;;;;;26.90;41.89;101981.28;6260448;28;20228;-50
2021/07/08 10:27:37;;;;;;;3.85;2.67;;;;;;;26.79;41.46;101983.72;6271592;28;20216;-49
2021/07/08 10:31:00;;;;;;;5.32;2.70;;;;;;;26.66;41.94;101980.06;6256979;28;20640;-50
2021/07/08 10:34:21;;;;;;;6.30;2.90;;;;;;;27.09;41.68;101982.84;6257374;28;20244;-49
2021/07/08 10:37:44;;;;;;;4.20;2.88;;;;;;;26.17;42.80;101985.53;6254089;28;20228;-54
2021/07/08 10:41:56;;;;;;;4.53;3.05;;;;;;;27.31;41.51;101987.78;6254255;28;20259;-57
2021/07/08 10:45:42;;;;;;;3.58;2.97;;;;;;;28.10;40.38;101980.19;6210035;28;20605;-58
2021/07/08 10:49:11;;;;;;;8.13;3.22;;;;;;;28.27;37.46;101979.94;6250811;28;20227;-57
2021/07/08 10:52:46;;;;;;;4.60;2.60;;;;;;;26.84;39.32;101972.78;6247229;28;20243;-56
2021/07/08 10:56:09;;;;;;;4.50;3.40;;;;;;;27.66;38.93;101974.00;6258509;28;20227;-52
2021/07/08 10:59:39;;;;;;;4.70;2.22;;;;;;;27.69;37.61;101971.16;6252287;28;20247;-55
2021/07/08 11:03:00;;;;;;;4.18;2.70;;;;;;;26.07;40.66;101986.03;6256758;28;20231;-56
2021/07/08 11:06:24;;;;;;;4.65;2.60;;;;;;;26.77;40.32;101984.78;6248913;28;20236;-54
2021/07/08 11:10:01;;;;;;;3.60;2.65;;;;;;;26.89;39.93;101973.38;6248570;28;20231;-54
2021/07/08 11:13:29;;;;;;;4.05;2.63;;;;;;;27.65;39.48;101974.97;6260631;28;20235;-54
2021/07/08 11:16:52;;;;;;;5.50;3.25;;;;;;;27.83;39.51;101973.81;6250233;28;20773;-51
2021/07/08 11:20:28;;;;;;;6.90;2.90;;;;;;;27.08;41.16;101965.06;6252408;28;20219;-55
2021/07/08 11:23:49;;;;;;;4.63;2.63;;;;;;;28.02;39.27;101953.91;6250876;28;20220;-50
2021/07/08 11:27:14;;;;;;;6.07;3.10;;;;;;;28.77;37.19;101953.41;6252164;28;20224;-52
2021/07/08 11:30:35;;;;;;;3.10;2.40;;;;;;;29.12;37.44;101951.03;6261673;28;20605;-53
2021/07/08 11:33:59;;;;;;;6.55;3.13;;;;;;;28.36;38.36;101943.66;6249326;28;20239;-55
2021/07/08 11:37:23;;;;;;;5.07;2.85;;;;;;;28.96;37.96;101944.97;6248093;28;20621;-56
2021/07/08 11:40:47;;;;;;;7.20;3.42;;;;;;;29.89;36.17;101928.59;6228355;28;20216;-57
2021/07/08 11:44:14;;;;;;;5.45;3.13;;;;;;;28.38;39.57;101936.38;6260431;28;20235;-57
2021/07/08 11:47:42;;;;;;;5.80;3.58;;;;;;;28.90;38.89;101926.63;6257157;28;20244;-58
2021/07/08 11:51:15;;;;;;;5.70;3.25;;;;;;;29.30;36.74;101930.09;6254380;28;20303;-52
2021/07/08 11:54:36;;;;;;;6.10;3.30;;;;;;;28.23;39.45;101912.34;6261304;28;20224;-58
2021/07/08 11:57:59;;;;;;;4.50;3.47;;;;;;;27.67;41.37;101909.69;6257817;28;20225;-49
2021/07/08 12:01:22;;;;;;;6.18;3.22;;;;;;;28.84;39.58;101914.50;6250938;28;20231;-50
2021/07/08 12:04:42;;;;;;;10.15;3.45;;;;;;;29.36;37.55;101915.38;6252639;28;20530;-49
2021/07/08 12:08:06;;;;;;;5.25;2.53;;;;;;;30.10;34.75;101913.56;6246127;28;20219;-53
2021/07/08 12:11:29;;;;;;;4.78;3.08;;;;;;;29.01;37.46;101907.97;6250661;28;20228;-52
2021/07/08 12:14:50;;;;;;;4.18;2.60;;;;;;;28.83;37.62;101900.25;6248388;28;21005;-49
2021/07/08 12:18:12;;;;;;;2.95;2.42;;;;;;;29.36;36.09;101891.25;6260230;28;20570;-54
2021/07/08 12:21:35;;;;;;;4.18;2.97;;;;;;;29.88;35.55;101892.84;6256447;28;20527;-49
2021/07/08 12:24:56;;;;;;;4.38;2.70;;;;;;;30.21;34.94;101899.34;6260274;28;20231;-50
2021/07/08 12:28:22;;;;;;;6.55;2.90;;;;;;;30.00;34.81;101874.94;6251991;28;20220;-53
2021/07/08 12:31:45;;;;;;;4.47;3.13;;;;;;;30.69;33.19;101888.53;6261013;28;20621;-47
2021/07/08 12:35:08;;;;;;;5.97;3.42;;;;;;;30.18;34.66;101880.75;6263021;28;20231;-64
2021/07/08 12:38:28;;;;;;;4.78;3.00;;;;;;;29.30;35.56;101891.69;6249499;28;20327;-63
2021/07/08 12:41:49;;;;;;;5.75;3.33;;;;;;;30.58;33.91;101891.19;6256628;28;20310;-62
2021/07/08 12:45:13;;;;;;;4.75;2.70;;;;;;;31.42;32.46;101880.13;6258406;28;20605;-64
2021/07/08 12:48:34;;;;;;;2.90;2.33;;;;;;;30.90;30.34;101879.75;6250643;28;20225;-62
2021/07/08 12:51:56;;;;;;;4.15;2.15;;;;;;;29.39;31.64;101874.91;6249773;28;20240;-64
2021/07/08 12:55:35;;;;;;;6.80;3.05;;;;;;;29.71;33.04;101890.50;6240340;28;20310;-66
2021/07/08 12:58:57;;;;;;;4.40;2.22;;;;;;;30.52;32.82;101865.63;6260539;28;20322;-64
2021/07/08 13:02:20;;;;;;;5.70;2.42;;;;;;;31.08;31.56;101862.19;6245657;28;20489;-64
2021/07/08 13:05:45;;;;;;;4.85;2.38;;;;;;;30.44;29.46;101876.13;6250068;28;20625;-63
2021/07/08 13:09:11;;;;;;;3.28;1.70;;;;;;;28.33;32.35;101869.72;6256535;28;20855;-63
2021/07/08 13:12:32;;;;;;;3.20;1.88;;;;;;;28.84;32.44;101874.31;6259615;28;20596;-63
2021/07/08 13:15:55;;;;;;;3.75;2.17;;;;;;;29.97;30.62;101869.78;6247497;28;20248;-50
2021/07/08 13:19:16;;;;;;;6.90;2.00;;;;;;;29.43;32.10;101871.91;6239500;28;20259;-46
2021/07/08 13:22:41;;;;;;;2.92;1.95;;;;;;;31.08;28.57;101861.31;6254711;28;20319;-48
2021/07/08 13:26:11;;;;;;;4.20;1.73;;;;;;;30.48;29.69;101864.16;6257312;28;20960;-48
2021/07/08 13:29:31;;;;;;;4.75;2.22;;;;;;;28.94;32.14;101869.16;6253630;28;20840;-51
2021/07/08 13:33:09;;;;;;;4.07;2.17;;;;;;;29.72;31.65;101860.00;6255953;28;20350;-51
2021/07/08 13:36:32;;;;;;;6.25;5.65;;;;;;;29.90;31.83;101845.25;6256681;28;21821;-50
2021/07/08 13:39:53;;;;;;;4.43;3.22;;;;;;;29.74;32.75;101847.34;6256576;28;20240;-48
2021/07/08 13:43:16;;;;;;;2.67;2.17;;;;;;;29.84;32.57;101843.88;6256149;28;20227;-49
2021/07/08 13:46:38;;;;;;;3.75;2.28;;;;;;;29.94;32.88;101843.19;6257539;28;20232;-51
2021/07/08 13:49:59;;;;;;;4.78;2.50;;;;;;;29.48;33.56;101851.94;6254143;28;20232;-52
2021/07/08 13:53:21;;;;;;;3.17;2.67;;;;;;;29.76;32.28;101850.78;6249583;28;20231;-49
2021/07/08 13:56:42;;;;;;;3.63;2.33;;;;;;;29.79;32.95;101847.88;6245784;28;20223;-52
2021/07/08 14:00:06;;;;;;;5.97;3.60;;;;;;;30.71;32.14;101840.88;6258081;28;20612;-49
2021/07/08 14:03:28;;;;;;;9.35;2.63;;;;;;;29.92;31.62;101843.31;6241200;28;20488;-54
2021/07/08 14:06:50;;;;;;;5.95;2.97;;;;;;;30.46;30.81;101841.06;6256590;28;20247;-49
2021/07/08 14:10:11;;;;;;;5.22;2.50;;;;;;;30.66;30.08;101832.31;6243674;28;20630;-47
2021/07/08 14:13:33;;;;;;;3.03;2.50;;;;;;;30.61;30.38;101826.41;6258607;28;20251;-48
2021/07/08 14:16:57;;;;;;;3.53;2.40;;;;;;;29.76;31.16;101829.28;6254358;28;20231;-50
2021/07/08 14:20:18;;;;;;;3.22;2.92;;;;;;;29.73;31.63;101822.34;6249363;28;20338;-51
2021/07/08 14:23:39;;;;;;;5.13;2.30;;;;;;;29.64;31.19;101828.34;6248975;28;20232;-50
2021/07/08 14:26:59;;;;;;;2.67;2.17;;;;;;;30.18;31.24;101816.28;6245252;28;20223;-51
2021/07/08 14:30:23;;;;;;;4.25;3.10;;;;;;;29.20;33.03;101819.94;6239543;28;20263;-50
2021/07/08 14:33:46;;;;;;;7.57;3.58;;;;;;;30.23;31.16;101814.97;6248388;28;20236;-47
2021/07/08 14:37:07;;;;;;;5.35;2.30;;;;;;;30.99;28.83;101803.75;6242318;28;20777;-50
2021/07/08 14:40:28;;;;;;;2.58;2.05;;;;;;;29.21;32.55;101812.72;6254074;28;20232;-51
2021/07/08 14:44:00;;;;;;;3.95;2.47;;;;;;;28.74;33.43;101825.00;6263635;28;20530;-49
2021/07/08 14:47:21;;;;;;;3.30;2.20;;;;;;;28.90;33.31;101819.41;6255036;28;20231;-50
2021/07/08 14:50:44;;;;;;;3.03;2.30;;;;;;;28.50;34.14;101811.44;6252778;28;20348;-53
2021/07/08 14:54:06;;;;;;;6.18;5.25;;;;;;;30.48;31.59;101799.66;6262364;28;20322;-51
2021/07/08 14:57:27;;;;;;;3.13;2.50;;;;;;;30.35;31.09;101793.53;6258621;28;20232;-49
2021/07/08 15:00:48;;;;;;;4.50;2.78;;;;;;;30.12;31.42;101800.66;6273997;28;20235;-52
2021/07/08 15:04:09;;;;;;;4.28;2.55;;;;;;;29.69;33.20;101790.47;6252255;28;20227;-52
2021/07/08 15:07:31;;;;;;;5.07;3.60;;;;;;;30.94;31.50;101781.72;6266120;28;20663;-51
2021/07/08 15:10:57;;;;;;;3.38;2.22;;;;;;;31.78;29.04;101779.34;6267299;28;20236;-47
2021/07/08 15:14:19;;;;;;;3.65;2.20;;;;;;;30.54;29.81;101787.59;6258153;28;20227;-49
2021/07/08 15:17:40;;;;;;;3.30;2.38;;;;;;;30.33;30.79;101782.06;6265053;28;20228;-46
2021/07/08 15:21:00;;;;;;;5.10;2.15;;;;;;;31.01;30.09;101780.25;6268320;28;20243;-51
2021/07/08 15:24:23;;;;;;;4.18;2.75;;;;;;;31.72;29.46;101779.88;6254390;28;20228;-50
2021/07/08 15:27:44;;;;;;;4.70;2.40;;;;;;;30.68;30.27;101779.28;6265543;28;20227;-54
2021/07/08 15:31:05;;;;;;;4.40;2.40;;;;;;;28.83;32.63;101793.03;6256930;28;20251;-54
2021/07/08 15:34:25;;;;;;;5.03;2.70;;;;;;;28.36;33.31;101781.09;6269751;28;20547;-52
2021/07/08 15:37:46;;;;;;;2.17;1.98;;;;;;;28.61;34.70;101780.28;6259019;28;20546;-52
2021/07/08 15:41:09;;;;;;;5.07;2.42;;;;;;;29.69;32.66;101785.94;6257590;28;20236;-50
2021/07/08 15:44:30;;;;;;;5.07;2.42;;;;;;;29.02;35.61;101792.59;6260657;28;20499;-51
2021/07/08 15:47:51;;;;;;;4.90;2.53;;;;;;;28.88;35.19;101784.66;6260347;28;20236;-51